Terminal Aerodrome Forecast
Issued by NWS

Home | Current Version | Previous Version | Graphics & Text | Print | Product List | Glossary On
Versions: 1 2 3 4 5 6 7 8 9 10 11 12 13 14 15
000
FTUS43 KGRB 141732
TAFAUW
TAF
KAUW 141732Z 1418/1518 09009G17KT P6SM SHRA BKN024 OVC060
     FM142100 08010G18KT 6SM SHRA OVC014
     FM150000 03012G19KT 6SM SHRA OVC007
     FM151200 33011G24KT P6SM -SHRA OVC020
     FM151700 32011G17KT P6SM -SHRA BKN035=

USA.gov is the U.S. government's official web portal to all federal, state and local government web resources and services.